sensor_id;sensor_type;location;lat;lon;timestamp;temperature;humidity
55135;DHT22;41031;44.750;11.308;2023-03-01T00:01:30;4.80;82.50
55135;DHT22;41031;44.750;11.308;2023-03-01T00:03:59;4.90;82.60
55135;DHT22;41031;44.750;11.308;2023-03-01T00:06:28;4.90;82.60
55135;DHT22;41031;44.750;11.308;2023-03-01T00:08:55;4.90;82.70
55135;DHT22;41031;44.750;11.308;2023-03-01T00:11:26;4.90;82.70
55135;DHT22;41031;44.750;11.308;2023-03-01T00:13:56;4.90;82.80
55135;DHT22;41031;44.750;11.308;2023-03-01T00:16:30;4.90;82.60
55135;DHT22;41031;44.750;11.308;2023-03-01T00:19:00;4.90;82.70
55135;DHT22;41031;44.750;11.308;2023-03-01T00:21:28;4.90;82.80
55135;DHT22;41031;44.750;11.308;2023-03-01T00:23:55;4.90;82.90
55135;DHT22;41031;44.750;11.308;2023-03-01T00:26:24;4.90;82.90
55135;DHT22;41031;44.750;11.308;2023-03-01T00:28:52;4.90;83.80
55135;DHT22;41031;44.750;11.308;2023-03-01T00:31:21;4.90;83.10
55135;DHT22;41031;44.750;11.308;2023-03-01T00:33:56;4.90;83.40
55135;DHT22;41031;44.750;11.308;2023-03-01T00:36:26;5.00;83.60
55135;DHT22;41031;44.750;11.308;2023-03-01T00:38:54;5.00;83.70
55135;DHT22;41031;44.750;11.308;2023-03-01T00:41:22;5.00;83.80
55135;DHT22;41031;44.750;11.308;2023-03-01T00:43:50;5.00;83.70
55135;DHT22;41031;44.750;11.308;2023-03-01T00:46:21;5.10;83.40
55135;DHT22;41031;44.750;11.308;2023-03-01T00:48:49;5.10;82.90
55135;DHT22;41031;44.750;11.308;2023-03-01T00:51:19;5.10;82.90
55135;DHT22;41031;44.750;11.308;2023-03-01T00:53:49;5.20;82.60
55135;DHT22;41031;44.750;11.308;2023-03-01T00:56:17;5.20;82.50
55135;DHT22;41031;44.750;11.308;2023-03-01T00:58:44;5.20;82.50
55135;DHT22;41031;44.750;11.308;2023-03-01T01:01:21;5.20;82.40
55135;DHT22;41031;44.750;11.308;2023-03-01T01:03:54;5.20;82.20
55135;DHT22;41031;44.750;11.308;2023-03-01T01:06:25;5.20;82.40
55135;DHT22;41031;44.750;11.308;2023-03-01T01:08:53;5.20;81.70
55135;DHT22;41031;44.750;11.308;2023-03-01T01:11:23;5.20;82.00
55135;DHT22;41031;44.750;11.308;2023-03-01T01:13:52;5.20;82.30
55135;DHT22;41031;44.750;11.308;2023-03-01T01:16:25;5.20;82.40
55135;DHT22;41031;44.750;11.308;2023-03-01T01:18:53;5.20;82.10
55135;DHT22;41031;44.750;11.308;2023-03-01T01:21:22;5.20;81.90
55135;DHT22;41031;44.750;11.308;2023-03-01T01:23:50;5.20;81.50
55135;DHT22;41031;44.750;11.308;2023-03-01T01:26:23;5.20;81.30
55135;DHT22;41031;44.750;11.308;2023-03-01T01:28:52;5.20;81.50
55135;DHT22;41031;44.750;11.308;2023-03-01T01:31:21;5.20;81.20
55135;DHT22;41031;44.750;11.308;2023-03-01T01:33:51;5.20;81.00
55135;DHT22;41031;44.750;11.308;2023-03-01T01:36:18;5.20;81.00
55135;DHT22;41031;44.750;11.308;2023-03-01T01:38:45;5.20;81.20
55135;DHT22;41031;44.750;11.308;2023-03-01T01:41:13;5.20;81.00
55135;DHT22;41031;44.750;11.308;2023-03-01T01:43:46;5.20;80.90
55135;DHT22;41031;44.750;11.308;2023-03-01T01:49:04;5.20;81.00
55135;DHT22;41031;44.750;11.308;2023-03-01T01:51:37;5.20;81.10
55135;DHT22;41031;44.750;11.308;2023-03-01T01:54:15;5.20;81.10
55135;DHT22;41031;44.750;11.308;2023-03-01T01:56:48;5.20;81.20
55135;DHT22;41031;44.750;11.308;2023-03-01T01:59:16;5.20;81.40
55135;DHT22;41031;44.750;11.308;2023-03-01T02:01:44;5.20;80.60
55135;DHT22;41031;44.750;11.308;2023-03-01T02:04:11;5.20;80.70
55135;DHT22;41031;44.750;11.308;2023-03-01T02:06:43;5.20;80.50
55135;DHT22;41031;44.750;11.308;2023-03-01T02:09:14;5.20;80.70
55135;DHT22;41031;44.750;11.308;2023-03-01T02:11:43;5.30;80.80
55135;DHT22;41031;44.750;11.308;2023-03-01T02:14:11;5.30;81.50
55135;DHT22;41031;44.750;11.308;2023-03-01T02:16:38;5.30;80.90
55135;DHT22;41031;44.750;11.308;2023-03-01T02:19:06;5.40;81.20
55135;DHT22;41031;44.750;11.308;2023-03-01T02:21:45;5.40;82.00
55135;DHT22;41031;44.750;11.308;2023-03-01T02:24:49;5.50;81.50
55135;DHT22;41031;44.750;11.308;2023-03-01T02:27:19;5.50;81.60
55135;DHT22;41031;44.750;11.308;2023-03-01T02:29:51;5.50;81.50
55135;DHT22;41031;44.750;11.308;2023-03-01T02:32:20;5.60;81.50
55135;DHT22;41031;44.750;11.308;2023-03-01T02:34:55;5.60;81.60
55135;DHT22;41031;44.750;11.308;2023-03-01T02:37:24;5.60;81.80
55135;DHT22;41031;44.750;11.308;2023-03-01T02:39:59;5.60;81.80
55135;DHT22;41031;44.750;11.308;2023-03-01T02:42:37;5.60;81.90
55135;DHT22;41031;44.750;11.308;2023-03-01T02:45:07;5.60;82.00
55135;DHT22;41031;44.750;11.308;2023-03-01T02:47:36;5.70;82.10
55135;DHT22;41031;44.750;11.308;2023-03-01T02:50:15;5.70;82.20
55135;DHT22;41031;44.750;11.308;2023-03-01T02:55:22;5.70;82.10
55135;DHT22;41031;44.750;11.308;2023-03-01T02:57:53;5.70;82.00
55135;DHT22;41031;44.750;11.308;2023-03-01T03:00:26;5.70;81.70
55135;DHT22;41031;44.750;11.308;2023-03-01T03:02:55;5.70;81.40
55135;DHT22;41031;44.750;11.308;2023-03-01T03:05:27;5.70;81.20
55135;DHT22;41031;44.750;11.308;2023-03-01T03:07:59;5.80;81.00
55135;DHT22;41031;44.750;11.308;2023-03-01T03:10:36;5.80;80.70
55135;DHT22;41031;44.750;11.308;2023-03-01T03:13:06;5.80;80.50
55135;DHT22;41031;44.750;11.308;2023-03-01T03:15:34;5.80;80.30
55135;DHT22;41031;44.750;11.308;2023-03-01T03:18:05;5.80;80.50
55135;DHT22;41031;44.750;11.308;2023-03-01T03:20:33;5.80;80.40
55135;DHT22;41031;44.750;11.308;2023-03-01T03:23:00;5.80;80.50
55135;DHT22;41031;44.750;11.308;2023-03-01T03:25:28;5.80;80.30
55135;DHT22;41031;44.750;11.308;2023-03-01T03:27:56;5.80;79.80
55135;DHT22;41031;44.750;11.308;2023-03-01T03:30:30;5.80;80.00
55135;DHT22;41031;44.750;11.308;2023-03-01T03:32:58;5.80;80.30
55135;DHT22;41031;44.750;11.308;2023-03-01T03:35:30;5.80;80.50
55135;DHT22;41031;44.750;11.308;2023-03-01T03:38:00;5.80;80.70
55135;DHT22;41031;44.750;11.308;2023-03-01T03:40:36;5.80;81.10
55135;DHT22;41031;44.750;11.308;2023-03-01T03:43:23;5.80;81.50
55135;DHT22;41031;44.750;11.308;2023-03-01T03:45:52;5.80;81.90
55135;DHT22;41031;44.750;11.308;2023-03-01T03:48:21;5.80;82.30
55135;DHT22;41031;44.750;11.308;2023-03-01T03:50:51;5.80;82.70
55135;DHT22;41031;44.750;11.308;2023-03-01T03:53:19;5.80;83.00
55135;DHT22;41031;44.750;11.308;2023-03-01T03:55:48;5.80;83.20
55135;DHT22;41031;44.750;11.308;2023-03-01T03:58:20;5.80;83.50
55135;DHT22;41031;44.750;11.308;2023-03-01T04:00:50;5.70;83.70
55135;DHT22;41031;44.750;11.308;2023-03-01T04:03:19;5.70;84.00
55135;DHT22;41031;44.750;11.308;2023-03-01T04:05:47;5.70;84.00
55135;DHT22;41031;44.750;11.308;2023-03-01T04:08:14;5.70;84.20
55135;DHT22;41031;44.750;11.308;2023-03-01T04:10:46;5.70;84.40
55135;DHT22;41031;44.750;11.308;2023-03-01T04:13:18;5.70;84.60
55135;DHT22;41031;44.750;11.308;2023-03-01T04:15:50;5.60;84.50
55135;DHT22;41031;44.750;11.308;2023-03-01T04:18:18;5.60;84.70
55135;DHT22;41031;44.750;11.308;2023-03-01T04:20:46;5.70;84.70
55135;DHT22;41031;44.750;11.308;2023-03-01T04:23:16;5.70;84.80
55135;DHT22;41031;44.750;11.308;2023-03-01T04:28:38;5.60;84.70
55135;DHT22;41031;44.750;11.308;2023-03-01T04:31:12;5.70;84.80
55135;DHT22;41031;44.750;11.308;2023-03-01T04:33:54;5.70;84.80
55135;DHT22;41031;44.750;11.308;2023-03-01T04:36:28;5.70;84.70
55135;DHT22;41031;44.750;11.308;2023-03-01T04:38:57;5.70;84.80
55135;DHT22;41031;44.750;11.308;2023-03-01T04:41:25;5.70;85.00
55135;DHT22;41031;44.750;11.308;2023-03-01T04:43:52;5.70;85.00
55135;DHT22;41031;44.750;11.308;2023-03-01T04:46:21;5.70;85.00
55135;DHT22;41031;44.750;11.308;2023-03-01T04:48:49;5.70;85.00
55135;DHT22;41031;44.750;11.308;2023-03-01T04:51:16;5.80;85.00
55135;DHT22;41031;44.750;11.308;2023-03-01T04:53:45;5.80;84.80
55135;DHT22;41031;44.750;11.308;2023-03-01T04:56:13;5.80;84.70
55135;DHT22;41031;44.750;11.308;2023-03-01T04:58:42;5.80;84.50
55135;DHT22;41031;44.750;11.308;2023-03-01T05:01:13;5.80;84.40
55135;DHT22;41031;44.750;11.308;2023-03-01T05:03:48;5.80;83.50
55135;DHT22;41031;44.750;11.308;2023-03-01T05:06:17;5.80;83.00
55135;DHT22;41031;44.750;11.308;2023-03-01T05:08:45;5.80;82.40
55135;DHT22;41031;44.750;11.308;2023-03-01T05:11:12;5.80;82.30
55135;DHT22;41031;44.750;11.308;2023-03-01T05:13:40;5.80;82.40
55135;DHT22;41031;44.750;11.308;2023-03-01T05:16:08;5.80;82.30
55135;DHT22;41031;44.750;11.308;2023-03-01T05:18:40;5.80;82.20
55135;DHT22;41031;44.750;11.308;2023-03-01T05:21:12;5.80;82.50
55135;DHT22;41031;44.750;11.308;2023-03-01T05:23:43;5.80;83.40
55135;DHT22;41031;44.750;11.308;2023-03-01T05:26:10;5.80;83.00
55135;DHT22;41031;44.750;11.308;2023-03-01T05:28:54;5.80;82.60
55135;DHT22;41031;44.750;11.308;2023-03-01T05:31:27;5.80;82.50
55135;DHT22;41031;44.750;11.308;2023-03-01T05:33:54;5.80;82.50
55135;DHT22;41031;44.750;11.308;2023-03-01T05:36:22;5.80;83.00
55135;DHT22;41031;44.750;11.308;2023-03-01T05:38:49;5.80;83.40
55135;DHT22;41031;44.750;11.308;2023-03-01T05:41:17;5.80;83.80
55135;DHT22;41031;44.750;11.308;2023-03-01T05:43:44;5.80;84.20
55135;DHT22;41031;44.750;11.308;2023-03-01T05:46:12;5.80;84.50
55135;DHT22;41031;44.750;11.308;2023-03-01T05:48:42;5.80;84.80
55135;DHT22;41031;44.750;11.308;2023-03-01T05:51:10;5.80;85.10
55135;DHT22;41031;44.750;11.308;2023-03-01T05:53:39;5.80;85.40
55135;DHT22;41031;44.750;11.308;2023-03-01T05:56:07;5.80;85.60
55135;DHT22;41031;44.750;11.308;2023-03-01T05:58:34;5.90;85.80
55135;DHT22;41031;44.750;11.308;2023-03-01T06:01:03;5.90;85.70
55135;DHT22;41031;44.750;11.308;2023-03-01T06:03:31;5.90;85.00
55135;DHT22;41031;44.750;11.308;2023-03-01T06:05:58;5.90;85.70
55135;DHT22;41031;44.750;11.308;2023-03-01T06:08:29;5.80;85.30
55135;DHT22;41031;44.750;11.308;2023-03-01T06:10:56;5.90;85.70
55135;DHT22;41031;44.750;11.308;2023-03-01T06:13:25;5.90;86.00
55135;DHT22;41031;44.750;11.308;2023-03-01T06:15:52;5.90;86.40
55135;DHT22;41031;44.750;11.308;2023-03-01T06:18:20;5.90;86.60
55135;DHT22;41031;44.750;11.308;2023-03-01T06:20:58;5.90;86.90
55135;DHT22;41031;44.750;11.308;2023-03-01T06:23:25;5.90;87.70
55135;DHT22;41031;44.750;11.308;2023-03-01T06:25:53;5.90;87.30
55135;DHT22;41031;44.750;11.308;2023-03-01T06:28:25;5.90;87.30
55135;DHT22;41031;44.750;11.308;2023-03-01T06:30:54;6.00;87.40
55135;DHT22;41031;44.750;11.308;2023-03-01T06:33:27;6.00;87.30
55135;DHT22;41031;44.750;11.308;2023-03-01T06:35:57;6.00;87.50
55135;DHT22;41031;44.750;11.308;2023-03-01T06:38:25;6.00;87.40
55135;DHT22;41031;44.750;11.308;2023-03-01T06:40:54;6.00;86.60
55135;DHT22;41031;44.750;11.308;2023-03-01T06:43:24;6.00;86.20
55135;DHT22;41031;44.750;11.308;2023-03-01T06:45:51;6.00;86.20
55135;DHT22;41031;44.750;11.308;2023-03-01T06:48:19;5.90;86.00
55135;DHT22;41031;44.750;11.308;2023-03-01T06:50:47;5.90;85.50
55135;DHT22;41031;44.750;11.308;2023-03-01T06:53:16;5.90;85.60
55135;DHT22;41031;44.750;11.308;2023-03-01T06:55:46;5.90;85.60
55135;DHT22;41031;44.750;11.308;2023-03-01T06:58:13;5.90;85.40
55135;DHT22;41031;44.750;11.308;2023-03-01T07:00:44;5.90;85.60
55135;DHT22;41031;44.750;11.308;2023-03-01T07:03:12;5.90;85.70
55135;DHT22;41031;44.750;11.308;2023-03-01T07:05:40;5.90;85.30
55135;DHT22;41031;44.750;11.308;2023-03-01T07:08:08;5.90;85.20
55135;DHT22;41031;44.750;11.308;2023-03-01T07:10:36;5.90;85.00
55135;DHT22;41031;44.750;11.308;2023-03-01T07:13:04;5.90;84.50
55135;DHT22;41031;44.750;11.308;2023-03-01T07:15:40;5.90;84.60
55135;DHT22;41031;44.750;11.308;2023-03-01T07:18:09;5.80;84.50
55135;DHT22;41031;44.750;11.308;2023-03-01T07:20:37;5.80;84.30
55135;DHT22;41031;44.750;11.308;2023-03-01T07:23:05;5.80;84.10
55135;DHT22;41031;44.750;11.308;2023-03-01T07:25:33;5.80;83.70
55135;DHT22;41031;44.750;11.308;2023-03-01T07:28:03;5.80;84.00
55135;DHT22;41031;44.750;11.308;2023-03-01T07:30:31;5.80;84.40
55135;DHT22;41031;44.750;11.308;2023-03-01T07:32:59;5.90;84.80
55135;DHT22;41031;44.750;11.308;2023-03-01T07:35:28;6.00;84.80
55135;DHT22;41031;44.750;11.308;2023-03-01T07:37:56;6.00;84.70
55135;DHT22;41031;44.750;11.308;2023-03-01T07:40:26;6.10;84.20
55135;DHT22;41031;44.750;11.308;2023-03-01T07:42:58;6.10;84.10
55135;DHT22;41031;44.750;11.308;2023-03-01T07:45:26;6.20;84.20
55135;DHT22;41031;44.750;11.308;2023-03-01T07:47:54;6.20;83.70
55135;DHT22;41031;44.750;11.308;2023-03-01T07:50:22;6.30;83.70
55135;DHT22;41031;44.750;11.308;2023-03-01T07:52:50;6.30;83.10
55135;DHT22;41031;44.750;11.308;2023-03-01T07:55:18;6.30;82.90
55135;DHT22;41031;44.750;11.308;2023-03-01T07:57:47;6.30;82.90
55135;DHT22;41031;44.750;11.308;2023-03-01T08:00:17;6.30;82.60
55135;DHT22;41031;44.750;11.308;2023-03-01T08:02:44;6.30;82.50
55135;DHT22;41031;44.750;11.308;2023-03-01T08:05:12;6.40;82.60
55135;DHT22;41031;44.750;11.308;2023-03-01T08:07:40;6.40;82.40
55135;DHT22;41031;44.750;11.308;2023-03-01T08:10:09;6.50;82.10
55135;DHT22;41031;44.750;11.308;2023-03-01T08:12:47;6.50;82.20
55135;DHT22;41031;44.750;11.308;2023-03-01T08:15:20;6.60;82.10
55135;DHT22;41031;44.750;11.308;2023-03-01T08:17:49;6.70;81.90
55135;DHT22;41031;44.750;11.308;2023-03-01T08:20:18;6.70;81.10
55135;DHT22;41031;44.750;11.308;2023-03-01T08:22:48;6.80;80.90
55135;DHT22;41031;44.750;11.308;2023-03-01T08:25:16;6.80;80.90
55135;DHT22;41031;44.750;11.308;2023-03-01T08:27:48;6.90;80.20
55135;DHT22;41031;44.750;11.308;2023-03-01T08:30:17;6.90;80.10
55135;DHT22;41031;44.750;11.308;2023-03-01T08:32:46;6.90;80.40
55135;DHT22;41031;44.750;11.308;2023-03-01T08:35:14;7.00;80.10
55135;DHT22;41031;44.750;11.308;2023-03-01T08:37:45;7.00;79.70
55135;DHT22;41031;44.750;11.308;2023-03-01T08:40:14;7.00;79.60
55135;DHT22;41031;44.750;11.308;2023-03-01T08:42:42;7.00;79.00
55135;DHT22;41031;44.750;11.308;2023-03-01T08:45:11;7.00;78.80
55135;DHT22;41031;44.750;11.308;2023-03-01T08:47:50;7.00;79.00
55135;DHT22;41031;44.750;11.308;2023-03-01T08:50:21;7.00;78.90
55135;DHT22;41031;44.750;11.308;2023-03-01T08:52:53;7.00;79.40
55135;DHT22;41031;44.750;11.308;2023-03-01T08:55:21;7.00;79.90
55135;DHT22;41031;44.750;11.308;2023-03-01T08:57:50;7.10;80.10
55135;DHT22;41031;44.750;11.308;2023-03-01T09:00:21;7.10;80.30
55135;DHT22;41031;44.750;11.308;2023-03-01T09:02:52;7.10;80.60
55135;DHT22;41031;44.750;11.308;2023-03-01T09:05:21;7.10;80.60
55135;DHT22;41031;44.750;11.308;2023-03-01T09:07:50;7.20;80.40
55135;DHT22;41031;44.750;11.308;2023-03-01T09:10:18;7.10;80.80
55135;DHT22;41031;44.750;11.308;2023-03-01T09:12:46;7.20;79.80
55135;DHT22;41031;44.750;11.308;2023-03-01T09:15:14;7.10;80.10
55135;DHT22;41031;44.750;11.308;2023-03-01T09:17:42;7.20;80.10
55135;DHT22;41031;44.750;11.308;2023-03-01T09:20:10;7.20;80.00
55135;DHT22;41031;44.750;11.308;2023-03-01T09:22:38;7.20;80.20
55135;DHT22;41031;44.750;11.308;2023-03-01T09:25:08;7.30;80.40
55135;DHT22;41031;44.750;11.308;2023-03-01T09:27:37;7.30;80.30
55135;DHT22;41031;44.750;11.308;2023-03-01T09:30:05;7.30;79.60
55135;DHT22;41031;44.750;11.308;2023-03-01T09:32:33;7.40;80.00
55135;DHT22;41031;44.750;11.308;2023-03-01T09:35:01;7.40;80.00
55135;DHT22;41031;44.750;11.308;2023-03-01T09:37:35;7.50;80.00
55135;DHT22;41031;44.750;11.308;2023-03-01T09:40:04;7.60;80.00
55135;DHT22;41031;44.750;11.308;2023-03-01T09:42:37;7.60;80.40
55135;DHT22;41031;44.750;11.308;2023-03-01T09:45:27;7.70;79.60
55135;DHT22;41031;44.750;11.308;2023-03-01T09:47:58;7.70;78.90
55135;DHT22;41031;44.750;11.308;2023-03-01T09:50:36;7.70;78.20
55135;DHT22;41031;44.750;11.308;2023-03-01T09:53:15;7.70;78.40
55135;DHT22;41031;44.750;11.308;2023-03-01T09:55:55;7.60;78.90
55135;DHT22;41031;44.750;11.308;2023-03-01T10:04:10;7.60;80.10
55135;DHT22;41031;44.750;11.308;2023-03-01T10:06:47;7.60;80.20
55135;DHT22;41031;44.750;11.308;2023-03-01T10:09:19;7.60;80.50
55135;DHT22;41031;44.750;11.308;2023-03-01T10:11:50;7.60;81.10
55135;DHT22;41031;44.750;11.308;2023-03-01T10:17:35;7.60;82.60
55135;DHT22;41031;44.750;11.308;2023-03-01T10:20:29;7.60;83.50
55135;DHT22;41031;44.750;11.308;2023-03-01T10:23:01;7.60;84.20
55135;DHT22;41031;44.750;11.308;2023-03-01T10:25:39;7.50;84.60
55135;DHT22;41031;44.750;11.308;2023-03-01T10:31:01;7.50;85.50
55135;DHT22;41031;44.750;11.308;2023-03-01T10:33:35;7.50;86.00
55135;DHT22;41031;44.750;11.308;2023-03-01T10:36:05;7.50;86.20
55135;DHT22;41031;44.750;11.308;2023-03-01T10:38:55;7.50;86.70
55135;DHT22;41031;44.750;11.308;2023-03-01T10:41:27;7.50;87.20
55135;DHT22;41031;44.750;11.308;2023-03-01T10:43:57;7.40;87.60
55135;DHT22;41031;44.750;11.308;2023-03-01T10:46:28;7.40;88.00
55135;DHT22;41031;44.750;11.308;2023-03-01T10:49:15;7.40;88.30
55135;DHT22;41031;44.750;11.308;2023-03-01T10:51:53;7.40;88.70
55135;DHT22;41031;44.750;11.308;2023-03-01T10:54:31;7.30;88.90
55135;DHT22;41031;44.750;11.308;2023-03-01T10:57:05;7.30;89.20
55135;DHT22;41031;44.750;11.308;2023-03-01T10:59:37;7.30;89.40
55135;DHT22;41031;44.750;11.308;2023-03-01T11:02:23;7.20;89.60
55135;DHT22;41031;44.750;11.308;2023-03-01T11:05:20;7.20;89.70
55135;DHT22;41031;44.750;11.308;2023-03-01T11:07:55;7.20;89.80
55135;DHT22;41031;44.750;11.308;2023-03-01T11:12:53;7.10;90.10
55135;DHT22;41031;44.750;11.308;2023-03-01T11:15:32;7.10;90.30
55135;DHT22;41031;44.750;11.308;2023-03-01T11:17:59;7.10;90.40
55135;DHT22;41031;44.750;11.308;2023-03-01T11:20:40;7.10;90.50
55135;DHT22;41031;44.750;11.308;2023-03-01T11:23:12;7.10;90.50
55135;DHT22;41031;44.750;11.308;2023-03-01T11:25:56;7.10;90.50
55135;DHT22;41031;44.750;11.308;2023-03-01T11:28:26;7.10;90.50
55135;DHT22;41031;44.750;11.308;2023-03-01T11:31:05;7.00;90.20
55135;DHT22;41031;44.750;11.308;2023-03-01T11:36:48;6.90;90.40
55135;DHT22;41031;44.750;11.308;2023-03-01T11:39:34;6.80;90.50
55135;DHT22;41031;44.750;11.308;2023-03-01T11:42:18;6.80;90.50
55135;DHT22;41031;44.750;11.308;2023-03-01T11:44:52;6.70;90.60
55135;DHT22;41031;44.750;11.308;2023-03-01T11:50:58;6.70;91.20
55135;DHT22;41031;44.750;11.308;2023-03-01T11:56:38;6.50;91.20
55135;DHT22;41031;44.750;11.308;2023-03-01T12:05:20;6.40;91.50
55135;DHT22;41031;44.750;11.308;2023-03-01T12:10:52;6.40;91.80
55135;DHT22;41031;44.750;11.308;2023-03-01T12:19:08;6.30;92.30
55135;DHT22;41031;44.750;11.308;2023-03-01T12:25:20;6.30;92.80
55135;DHT22;41031;44.750;11.308;2023-03-01T12:28:14;6.40;93.10
55135;DHT22;41031;44.750;11.308;2023-03-01T12:31:15;6.40;93.20
55135;DHT22;41031;44.750;11.308;2023-03-01T12:39:27;6.30;93.20
55135;DHT22;41031;44.750;11.308;2023-03-01T12:42:30;6.30;93.40
55135;DHT22;41031;44.750;11.308;2023-03-01T12:45:26;6.20;93.20
55135;DHT22;41031;44.750;11.308;2023-03-01T12:48:20;6.10;93.40
55135;DHT22;41031;44.750;11.308;2023-03-01T12:50:52;6.10;93.70
55135;DHT22;41031;44.750;11.308;2023-03-01T12:53:30;6.10;93.90
55135;DHT22;41031;44.750;11.308;2023-03-01T12:56:06;6.10;94.00
55135;DHT22;41031;44.750;11.308;2023-03-01T12:59:01;6.10;94.10
55135;DHT22;41031;44.750;11.308;2023-03-01T13:10:50;6.20;94.70
55135;DHT22;41031;44.750;11.308;2023-03-01T13:13:23;6.20;95.10
55135;DHT22;41031;44.750;11.308;2023-03-01T13:15:52;6.20;94.90
55135;DHT22;41031;44.750;11.308;2023-03-01T13:20:55;6.30;95.10
55135;DHT22;41031;44.750;11.308;2023-03-01T13:23:34;6.30;95.20
55135;DHT22;41031;44.750;11.308;2023-03-01T13:33:53;6.30;95.50
55135;DHT22;41031;44.750;11.308;2023-03-01T13:38:58;6.30;95.50
55135;DHT22;41031;44.750;11.308;2023-03-01T13:44:23;6.30;95.60
55135;DHT22;41031;44.750;11.308;2023-03-01T13:47:14;6.40;95.60
55135;DHT22;41031;44.750;11.308;2023-03-01T13:55:37;6.30;95.50
55135;DHT22;41031;44.750;11.308;2023-03-01T14:00:42;6.30;95.40
55135;DHT22;41031;44.750;11.308;2023-03-01T14:03:19;6.30;95.50
55135;DHT22;41031;44.750;11.308;2023-03-01T14:06:05;6.30;95.50
55135;DHT22;41031;44.750;11.308;2023-03-01T14:08:44;6.30;95.60
55135;DHT22;41031;44.750;11.308;2023-03-01T14:17:04;6.30;95.70
55135;DHT22;41031;44.750;11.308;2023-03-01T14:19:41;6.30;95.80
55135;DHT22;41031;44.750;11.308;2023-03-01T14:22:27;6.20;95.80
55135;DHT22;41031;44.750;11.308;2023-03-01T14:25:00;6.30;95.80
55135;DHT22;41031;44.750;11.308;2023-03-01T14:27:39;6.20;95.90
55135;DHT22;41031;44.750;11.308;2023-03-01T14:30:27;6.20;95.90
55135;DHT22;41031;44.750;11.308;2023-03-01T14:33:04;6.30;96.00
55135;DHT22;41031;44.750;11.308;2023-03-01T14:35:35;6.30;96.00
55135;DHT22;41031;44.750;11.308;2023-03-01T14:38:04;6.30;96.00
55135;DHT22;41031;44.750;11.308;2023-03-01T14:40:32;6.40;96.10
55135;DHT22;41031;44.750;11.308;2023-03-01T14:43:08;6.30;96.00
55135;DHT22;41031;44.750;11.308;2023-03-01T14:45:36;6.40;96.10
55135;DHT22;41031;44.750;11.308;2023-03-01T14:48:05;6.40;96.10
55135;DHT22;41031;44.750;11.308;2023-03-01T14:50:44;6.40;96.10
55135;DHT22;41031;44.750;11.308;2023-03-01T14:53:18;6.40;96.10
55135;DHT22;41031;44.750;11.308;2023-03-01T14:55:52;6.40;96.20
55135;DHT22;41031;44.750;11.308;2023-03-01T14:58:23;6.40;96.20
55135;DHT22;41031;44.750;11.308;2023-03-01T15:00:56;6.40;96.20
55135;DHT22;41031;44.750;11.308;2023-03-01T15:03:38;6.40;96.20
55135;DHT22;41031;44.750;11.308;2023-03-01T15:06:08;6.40;96.10
55135;DHT22;41031;44.750;11.308;2023-03-01T15:08:44;6.40;96.20
55135;DHT22;41031;44.750;11.308;2023-03-01T15:11:17;6.40;96.20
55135;DHT22;41031;44.750;11.308;2023-03-01T15:13:52;6.40;96.30
55135;DHT22;41031;44.750;11.308;2023-03-01T15:16:27;6.40;96.30
55135;DHT22;41031;44.750;11.308;2023-03-01T15:19:02;6.40;96.30
55135;DHT22;41031;44.750;11.308;2023-03-01T15:21:38;6.30;96.20
55135;DHT22;41031;44.750;11.308;2023-03-01T15:26:58;6.30;96.10
55135;DHT22;41031;44.750;11.308;2023-03-01T15:29:31;6.30;96.20
55135;DHT22;41031;44.750;11.308;2023-03-01T15:32:05;6.20;96.30
55135;DHT22;41031;44.750;11.308;2023-03-01T15:34:35;6.30;96.40
55135;DHT22;41031;44.750;11.308;2023-03-01T15:37:15;6.30;96.40
55135;DHT22;41031;44.750;11.308;2023-03-01T15:39:56;6.30;96.40
55135;DHT22;41031;44.750;11.308;2023-03-01T15:47:58;6.30;96.60
55135;DHT22;41031;44.750;11.308;2023-03-01T15:50:36;6.30;96.70
55135;DHT22;41031;44.750;11.308;2023-03-01T15:53:14;6.40;96.80
55135;DHT22;41031;44.750;11.308;2023-03-01T15:55:50;6.40;96.80
55135;DHT22;41031;44.750;11.308;2023-03-01T15:58:25;6.50;96.90
55135;DHT22;41031;44.750;11.308;2023-03-01T16:00:58;6.50;96.90
55135;DHT22;41031;44.750;11.308;2023-03-01T16:03:28;6.60;97.00
55135;DHT22;41031;44.750;11.308;2023-03-01T16:05:56;6.60;97.00
55135;DHT22;41031;44.750;11.308;2023-03-01T16:08:24;6.70;97.10
55135;DHT22;41031;44.750;11.308;2023-03-01T16:10:52;6.70;97.00
55135;DHT22;41031;44.750;11.308;2023-03-01T16:13:21;6.70;97.00
55135;DHT22;41031;44.750;11.308;2023-03-01T16:15:49;6.70;97.00
55135;DHT22;41031;44.750;11.308;2023-03-01T16:18:17;6.70;96.90
55135;DHT22;41031;44.750;11.308;2023-03-01T16:20:45;6.70;96.90
55135;DHT22;41031;44.750;11.308;2023-03-01T16:23:12;6.70;96.90
55135;DHT22;41031;44.750;11.308;2023-03-01T16:25:41;6.70;96.90
55135;DHT22;41031;44.750;11.308;2023-03-01T16:28:09;6.70;96.90
55135;DHT22;41031;44.750;11.308;2023-03-01T16:30:38;6.70;97.00
55135;DHT22;41031;44.750;11.308;2023-03-01T16:33:12;6.70;97.00
55135;DHT22;41031;44.750;11.308;2023-03-01T16:35:57;6.70;97.00
55135;DHT22;41031;44.750;11.308;2023-03-01T16:38:27;6.80;97.00
55135;DHT22;41031;44.750;11.308;2023-03-01T16:40:54;6.80;97.10
55135;DHT22;41031;44.750;11.308;2023-03-01T16:43:22;6.80;97.10
55135;DHT22;41031;44.750;11.308;2023-03-01T16:45:49;6.80;97.10
55135;DHT22;41031;44.750;11.308;2023-03-01T16:48:17;6.80;97.10
55135;DHT22;41031;44.750;11.308;2023-03-01T16:50:45;6.80;97.10
55135;DHT22;41031;44.750;11.308;2023-03-01T16:53:12;6.80;97.10
55135;DHT22;41031;44.750;11.308;2023-03-01T16:55:41;6.80;97.00
55135;DHT22;41031;44.750;11.308;2023-03-01T16:58:12;6.80;97.00
55135;DHT22;41031;44.750;11.308;2023-03-01T17:00:40;6.80;97.00
55135;DHT22;41031;44.750;11.308;2023-03-01T17:03:07;6.80;97.00
55135;DHT22;41031;44.750;11.308;2023-03-01T17:05:34;6.80;97.00
55135;DHT22;41031;44.750;11.308;2023-03-01T17:08:02;6.80;97.00
55135;DHT22;41031;44.750;11.308;2023-03-01T17:10:29;6.80;97.00
55135;DHT22;41031;44.750;11.308;2023-03-01T17:12:59;6.70;96.90
55135;DHT22;41031;44.750;11.308;2023-03-01T17:15:27;6.70;97.00
55135;DHT22;41031;44.750;11.308;2023-03-01T17:17:54;6.70;97.00
55135;DHT22;41031;44.750;11.308;2023-03-01T17:20:21;6.70;96.90
55135;DHT22;41031;44.750;11.308;2023-03-01T17:22:49;6.70;96.90
55135;DHT22;41031;44.750;11.308;2023-03-01T17:25:18;6.70;96.90
55135;DHT22;41031;44.750;11.308;2023-03-01T17:27:46;6.60;96.90
55135;DHT22;41031;44.750;11.308;2023-03-01T17:30:14;6.60;96.90
55135;DHT22;41031;44.750;11.308;2023-03-01T17:32:41;6.60;96.90
55135;DHT22;41031;44.750;11.308;2023-03-01T17:35:10;6.60;96.90
55135;DHT22;41031;44.750;11.308;2023-03-01T17:37:40;6.60;96.90
55135;DHT22;41031;44.750;11.308;2023-03-01T17:40:12;6.60;97.00
55135;DHT22;41031;44.750;11.308;2023-03-01T17:42:40;6.60;97.00